Time;durP1;ratioP1;P1;durP2;ratioP2;P2;SDS_P1;SDS_P2;PMS_P1;PMS_P2;Temp;Humidity;BMP_temperature;BMP_pressure;BME280_temperature;BME280_humidity;BME280_pressure;Samples;Min_cycle;Max_cycle;Signal;HPM_P1;HPM_P2
2021/04/15 00:07:08;;;;;;;7.57;3.37;;;;;;;;;;4595516;28;20638;-57
2021/04/15 00:09:39;;;;;;;10.98;3.17;;;;;;;;;;4224421;33;20119;-55
2021/04/15 00:12:11;;;;;;;6.20;2.65;;;;;;;;;;4225794;33;20161;-54
2021/04/15 00:14:52;;;;;;;8.35;3.25;;;;;;;;;;4219224;34;20086;-53
2021/04/15 00:17:32;;;;;;;11.65;2.97;;;;;;;;;;4206418;34;20224;-54
2021/04/15 00:20:11;;;;;;;10.75;3.37;;;;;;;;;;4216720;34;20137;-55
2021/04/15 00:22:47;;;;;;;5.30;3.37;;;;;;;;;;4206766;34;20118;-55
2021/04/15 00:25:23;;;;;;;8.15;3.12;;;;;;;;;;4206966;34;20121;-57
2021/04/15 00:27:56;;;;;;;8.05;3.97;;;;;;;;;;4219112;33;20132;-56
2021/04/15 00:30:33;;;;;;;7.78;3.50;;;;;;;;;;4219259;34;20136;-56
2021/04/15 00:33:11;;;;;;;12.82;3.50;;;;;;;;;;4219150;34;20101;-56
2021/04/15 00:35:44;;;;;;;14.30;3.37;;;;;;;;;;4207549;34;20113;-56
2021/04/15 00:38:24;;;;;;;8.13;3.03;;;;;;;;;;4219243;34;20137;-51
2021/04/15 00:41:18;;;;;;;9.45;3.72;;;;;;;;;;4218202;34;20101;-51
2021/04/15 00:43:57;;;;;;;6.68;3.80;;;;;;;;;;4206658;34;20191;-52
2021/04/15 00:46:50;;;;;;;9.45;3.65;;;;;;;;;;4218851;34;20123;-52
2021/04/15 00:49:42;;;;;;;8.70;3.42;;;;;;;;;;4219041;34;20181;-53
2021/04/15 00:52:13;;;;;;;16.27;3.58;;;;;;;;;;4206147;34;20532;-57
2021/04/15 00:54:50;;;;;;;8.85;3.47;;;;;;;;;;4195001;34;20509;-49
2021/04/15 00:57:41;;;;;;;7.75;4.12;;;;;;;;;;4206515;34;20094;-49
2021/04/15 01:00:15;;;;;;;5.15;3.47;;;;;;;;;;4196181;34;20124;-49
2021/04/15 01:02:48;;;;;;;;;;;;;;;;;;4219265;34;20444;-49
2021/04/15 01:05:26;;;;;;;7.75;3.45;;;;;;;;;;4218968;34;20013;-55
2021/04/15 01:07:59;;;;;;;7.75;3.40;;;;;;;;;;4205997;34;20218;-56
2021/04/15 01:10:44;;;;;;;14.13;4.07;;;;;;;;;;4219139;34;20102;-54
2021/04/15 01:13:31;;;;;;;15.63;3.80;;;;;;;;;;4196099;34;20445;-52
2021/04/15 01:16:18;;;;;;;7.47;3.28;;;;;;;;;;4218651;34;20102;-50
2021/04/15 01:19:19;;;;;;;13.32;4.65;;;;;;;;;;4218756;34;20086;-51
2021/04/15 01:22:08;;;;;;;8.40;3.70;;;;;;;;;;4207178;34;20151;-55
2021/04/15 01:24:53;;;;;;;11.70;4.85;;;;;;;;;;4218686;34;20121;-55
2021/04/15 01:27:47;;;;;;;16.75;5.30;;;;;;;;;;4201912;34;20116;-56
2021/04/15 01:30:33;;;;;;;12.30;4.80;;;;;;;;;;4204821;34;20213;-54
2021/04/15 01:33:27;;;;;;;12.23;3.87;;;;;;;;;;4192397;34;20173;-55
2021/04/15 01:36:13;;;;;;;12.32;3.80;;;;;;;;;;4204636;34;20462;-56
2021/04/15 01:39:00;;;;;;;11.60;3.85;;;;;;;;;;4181757;34;20184;-56
2021/04/15 01:41:35;;;;;;;10.05;3.97;;;;;;;;;;4169974;34;20113;-55
2021/04/15 01:44:24;;;;;;;7.10;4.80;;;;;;;;;;4196028;34;20105;-56
2021/04/15 01:46:56;;;;;;;7.65;3.50;;;;;;;;;;4183856;34;20440;-56
2021/04/15 01:49:34;;;;;;;9.77;3.47;;;;;;;;;;4194516;34;20189;-56
2021/04/15 01:52:02;;;;;;;14.40;4.30;;;;;;;;;;4218391;33;20322;-55
2021/04/15 01:54:34;;;;;;;11.75;3.42;;;;;;;;;;4193715;34;20125;-49
2021/04/15 01:57:13;;;;;;;8.45;3.83;;;;;;;;;;4194307;34;20130;-49
2021/04/15 02:00:12;;;;;;;8.23;3.45;;;;;;;;;;4194301;34;20125;-49
2021/04/15 02:02:48;;;;;;;11.38;4.65;;;;;;;;;;4182896;34;20131;-52
2021/04/15 02:05:27;;;;;;;9.32;3.83;;;;;;;;;;4196148;34;20097;-49
2021/04/15 02:08:21;;;;;;;8.45;3.75;;;;;;;;;;4207576;34;20231;-49
2021/04/15 02:11:27;;;;;;;8.48;3.85;;;;;;;;;;4209603;34;20129;-51
2021/04/15 02:13:57;;;;;;;10.50;3.72;;;;;;;;;;4220449;34;20630;-49
2021/04/15 02:16:32;;;;;;;12.57;3.67;;;;;;;;;;4196191;34;20517;-58
2021/04/15 02:19:10;;;;;;;10.50;3.80;;;;;;;;;;4197227;34;20509;-55
2021/04/15 02:21:53;;;;;;;10.48;4.35;;;;;;;;;;4198498;34;20549;-53
2021/04/15 02:24:32;;;;;;;18.60;5.12;;;;;;;;;;4207450;34;20106;-56
2021/04/15 02:27:13;;;;;;;9.63;3.50;;;;;;;;;;4208263;34;20137;-52
2021/04/15 02:29:46;;;;;;;8.25;3.40;;;;;;;;;;4206348;34;20445;-54
2021/04/15 02:32:25;;;;;;;15.32;3.40;;;;;;;;;;4193358;34;20122;-55
2021/04/15 02:35:09;;;;;;;10.18;3.22;;;;;;;;;;4194409;34;20122;-47
2021/04/15 02:37:50;;;;;;;9.83;3.77;;;;;;;;;;4193682;34;20181;-49
2021/04/15 02:40:37;;;;;;;17.12;3.45;;;;;;;;;;4194291;34;20098;-46
2021/04/15 02:43:41;;;;;;;7.75;4.00;;;;;;;;;;4194251;34;20197;-48
2021/04/15 02:46:34;;;;;;;15.63;4.25;;;;;;;;;;4185656;34;20181;-46
2021/04/15 02:49:11;;;;;;;15.90;4.30;;;;;;;;;;4184525;34;20110;-46
2021/04/15 02:51:59;;;;;;;14.90;3.85;;;;;;;;;;4185407;34;20117;-47
2021/04/15 02:54:39;;;;;;;15.02;4.10;;;;;;;;;;4212209;34;20101;-46
2021/04/15 02:57:37;;;;;;;9.65;3.62;;;;;;;;;;4220012;34;20214;-49
2021/04/15 03:00:12;;;;;;;16.85;3.80;;;;;;;;;;4207872;34;20109;-49
2021/04/15 03:03:02;;;;;;;18.77;4.43;;;;;;;;;;4219719;34;20101;-48
2021/04/15 03:05:32;;;;;;;24.42;4.45;;;;;;;;;;4219721;34;20097;-52
2021/04/15 03:08:06;;;;;;;15.57;4.57;;;;;;;;;;4195471;34;20186;-52
2021/04/15 03:10:47;;;;;;;43.53;6.40;;;;;;;;;;4195504;34;20445;-48
2021/04/15 03:13:18;;;;;;;20.58;4.68;;;;;;;;;;4206150;34;20133;-48
2021/04/15 03:15:53;;;;;;;;;;;;;;;;;;4218952;34;20176;-46
2021/04/15 03:18:59;;;;;;;24.35;5.03;;;;;;;;;;4219883;34;19993;-47
2021/04/15 03:21:52;;;;;;;14.05;4.60;;;;;;;;;;4209162;34;20098;-47
2021/04/15 03:24:49;;;;;;;28.60;4.82;;;;;;;;;;4196650;34;20522;-46
2021/04/15 03:27:41;;;;;;;17.90;4.47;;;;;;;;;;4200706;34;20105;-46
2021/04/15 03:36:57;;;;;;;20.25;4.25;;;;;;;;;;4283621;28;20124;-48
2021/04/15 03:39:38;;;;;;;12.00;4.50;;;;;;;;;;4183541;34;20105;-56
2021/04/15 03:42:19;;;;;;;16.87;4.60;;;;;;;;;;4193888;34;20105;-54
2021/04/15 03:47:40;;;;;;;12.37;4.12;;;;;;;;;;4237856;28;20662;-46
2021/04/15 03:50:25;;;;;;;15.38;4.35;;;;;;;;;;4207638;33;20512;-45
2021/04/15 03:53:49;;;;;;;19.48;4.45;;;;;;;;;;4196450;33;20140;-46
2021/04/15 03:56:53;;;;;;;8.30;3.45;;;;;;;;;;4184200;34;20193;-48
2021/04/15 03:59:53;;;;;;;10.27;3.50;;;;;;;;;;4199419;34;20193;-46
2021/04/15 04:02:33;;;;;;;18.42;3.95;;;;;;;;;;4209933;33;20082;-56
2021/04/15 04:05:25;;;;;;;16.77;4.25;;;;;;;;;;4208421;33;20097;-56
2021/04/15 04:08:02;;;;;;;12.40;5.05;;;;;;;;;;4206882;33;20154;-57
2021/04/15 04:11:04;;;;;;;12.73;3.72;;;;;;;;;;4183341;34;20114;-56
2021/04/15 04:14:10;;;;;;;10.75;3.85;;;;;;;;;;4207338;33;20105;-51
2021/04/15 04:16:44;;;;;;;12.93;3.58;;;;;;;;;;4209517;33;20514;-53
2021/04/15 04:19:47;;;;;;;18.77;3.67;;;;;;;;;;4212532;34;20591;-55
2021/04/15 04:22:29;;;;;;;13.68;3.40;;;;;;;;;;4205054;33;20090;-52
2021/04/15 04:26:03;;;;;;;9.18;3.12;;;;;;;;;;4208280;33;20192;-48
2021/04/15 04:28:49;;;;;;;13.98;3.47;;;;;;;;;;4181911;34;20456;-46
2021/04/15 04:31:19;;;;;;;13.75;3.78;;;;;;;;;;4215046;33;20117;-46
2021/04/15 04:34:11;;;;;;;12.73;3.30;;;;;;;;;;4197118;33;20461;-46
2021/04/15 04:36:56;;;;;;;9.00;3.50;;;;;;;;;;4213133;28;20089;-48
2021/04/15 04:39:25;;;;;;;12.35;3.33;;;;;;;;;;4182924;34;20556;-49
2021/04/15 04:42:09;;;;;;;29.80;4.78;;;;;;;;;;4194335;34;20143;-47
2021/04/15 04:44:43;;;;;;;46.58;5.72;;;;;;;;;;4208938;33;20512;-51
2021/04/15 04:47:35;;;;;;;18.67;4.12;;;;;;;;;;4194733;34;20438;-49
2021/04/15 04:50:29;;;;;;;39.17;5.62;;;;;;;;;;4204432;34;20181;-46
2021/04/15 04:53:30;;;;;;;33.47;4.22;;;;;;;;;;4206104;34;20185;-50
2021/04/15 04:56:21;;;;;;;28.83;4.32;;;;;;;;;;4194605;34;20105;-55
2021/04/15 04:58:51;;;;;;;12.73;5.05;;;;;;;;;;4205730;34;20109;-55
2021/04/15 05:01:23;;;;;;;19.33;3.92;;;;;;;;;;4205832;34;20136;-55
2021/04/15 05:04:02;;;;;;;17.60;3.55;;;;;;;;;;4182883;34;20220;-50
2021/04/15 05:06:33;;;;;;;18.70;4.75;;;;;;;;;;4217117;33;20117;-51
2021/04/15 05:08:59;;;;;;;15.85;3.67;;;;;;;;;;4217149;33;20100;-51
2021/04/15 05:11:30;;;;;;;8.15;3.20;;;;;;;;;;4217005;33;20131;-50
2021/04/15 05:13:59;;;;;;;8.15;3.40;;;;;;;;;;4205350;34;20113;-53
2021/04/15 05:17:02;;;;;;;11.95;4.37;;;;;;;;;;4198290;34;20118;-52
2021/04/15 05:19:34;;;;;;;8.57;3.17;;;;;;;;;;4204316;34;20106;-50
2021/04/15 05:22:19;;;;;;;15.00;2.97;;;;;;;;;;4194217;34;20117;-49
2021/04/15 05:24:51;;;;;;;6.37;3.45;;;;;;;;;;4205423;34;20180;-49
2021/04/15 05:27:29;;;;;;;11.32;4.78;;;;;;;;;;4182558;34;20196;-47
2021/04/15 05:30:14;;;;;;;16.20;4.50;;;;;;;;;;4174476;34;20086;-49
2021/04/15 05:32:43;;;;;;;17.30;3.58;;;;;;;;;;4204488;34;20086;-47
2021/04/15 05:35:12;;;;;;;17.23;4.45;;;;;;;;;;4193538;34;20141;-47
2021/04/15 05:37:48;;;;;;;9.02;4.25;;;;;;;;;;4171181;34;20125;-47
2021/04/15 05:40:21;;;;;;;10.13;3.55;;;;;;;;;;4194305;34;20114;-47
2021/04/15 05:43:04;;;;;;;18.83;4.30;;;;;;;;;;4204974;34;20120;-48
2021/04/15 05:45:43;;;;;;;11.18;3.50;;;;;;;;;;4182963;34;20133;-49
2021/04/15 05:48:11;;;;;;;15.15;3.87;;;;;;;;;;4193769;34;20517;-49
2021/04/15 05:50:49;;;;;;;11.50;3.78;;;;;;;;;;4205297;34;20105;-48
2021/04/15 05:53:38;;;;;;;13.75;3.60;;;;;;;;;;4197057;34;20457;-47
2021/04/15 05:56:14;;;;;;;7.32;3.33;;;;;;;;;;4193660;34;20707;-48
2021/04/15 05:59:06;;;;;;;11.07;5.10;;;;;;;;;;4194480;34;20532;-45
2021/04/15 06:01:56;;;;;;;15.02;4.57;;;;;;;;;;4205108;34;20094;-49
2021/04/15 06:04:44;;;;;;;7.03;3.67;;;;;;;;;;4182552;34;20089;-51
2021/04/15 06:07:19;;;;;;;9.23;3.70;;;;;;;;;;4182410;34;20124;-49
2021/04/15 06:09:51;;;;;;;12.05;3.22;;;;;;;;;;4193540;34;20199;-48
2021/04/15 06:12:36;;;;;;;9.90;4.00;;;;;;;;;;4193600;34;20129;-46
2021/04/15 06:15:37;;;;;;;8.65;4.12;;;;;;;;;;4182044;34;20108;-46
2021/04/15 06:18:29;;;;;;;19.37;3.58;;;;;;;;;;4200490;34;20113;-45
2021/04/15 06:21:14;;;;;;;8.38;3.35;;;;;;;;;;4216121;33;20261;-47
2021/04/15 06:24:02;;;;;;;11.00;3.47;;;;;;;;;;4202501;34;20118;-45
2021/04/15 06:26:48;;;;;;;7.90;3.35;;;;;;;;;;4189339;34;20200;-54
2021/04/15 06:29:22;;;;;;;8.65;3.00;;;;;;;;;;4203676;34;20124;-55
2021/04/15 06:31:52;;;;;;;14.25;3.37;;;;;;;;;;4204789;34;20216;-55
2021/04/15 06:34:23;;;;;;;9.05;3.15;;;;;;;;;;4193698;34;20121;-58
2021/04/15 06:37:21;;;;;;;8.38;3.78;;;;;;;;;;4180272;34;20110;-56
2021/04/15 06:40:10;;;;;;;13.35;4.20;;;;;;;;;;4191056;34;20564;-53
2021/04/15 06:42:43;;;;;;;8.63;3.75;;;;;;;;;;4190820;34;20186;-55
2021/04/15 06:45:56;;;;;;;18.85;4.25;;;;;;;;;;4192058;34;20500;-55
2021/04/15 06:48:40;;;;;;;14.57;3.47;;;;;;;;;;4203171;34;20210;-50
2021/04/15 06:51:17;;;;;;;20.00;4.12;;;;;;;;;;4193107;34;20105;-50
2021/04/15 06:54:02;;;;;;;11.65;4.15;;;;;;;;;;4210860;34;20194;-48
2021/04/15 06:56:42;;;;;;;11.10;3.62;;;;;;;;;;4207029;34;20120;-45
2021/04/15 06:59:34;;;;;;;8.88;3.12;;;;;;;;;;4206778;34;20564;-45
2021/04/15 07:02:28;;;;;;;8.68;2.22;;;;;;;;;;4206623;34;20129;-45
2021/04/15 07:05:10;;;;;;;12.32;3.37;;;;;;;;;;4206740;34;20137;-45
2021/04/15 07:07:48;;;;;;;10.77;3.45;;;;;;;;;;4206900;34;20119;-48
2021/04/15 07:10:45;;;;;;;10.63;3.40;;;;;;;;;;4199135;34;20118;-55
2021/04/15 07:13:20;;;;;;;16.33;3.30;;;;;;;;;;4182898;34;20124;-48
2021/04/15 07:16:02;;;;;;;7.60;3.28;;;;;;;;;;4195355;34;20118;-46
2021/04/15 07:18:40;;;;;;;7.18;3.30;;;;;;;;;;4206831;34;20082;-45
2021/04/15 07:21:27;;;;;;;11.25;3.70;;;;;;;;;;4218010;33;20125;-48
2021/04/15 07:24:29;;;;;;;9.35;3.08;;;;;;;;;;4217924;34;20105;-50
2021/04/15 07:27:31;;;;;;;14.02;3.90;;;;;;;;;;4212949;34;20102;-50
2021/04/15 07:30:03;;;;;;;14.95;3.60;;;;;;;;;;4206665;34;20109;-49
2021/04/15 07:33:07;;;;;;;6.43;3.67;;;;;;;;;;4195262;34;20598;-51
2021/04/15 07:35:47;;;;;;;12.25;2.75;;;;;;;;;;4194894;34;20201;-48
2021/04/15 07:38:28;;;;;;;8.38;3.12;;;;;;;;;;4206590;34;20113;-49
2021/04/15 07:41:01;;;;;;;9.38;3.00;;;;;;;;;;4206204;34;20547;-46
2021/04/15 07:43:52;;;;;;;12.98;3.08;;;;;;;;;;4206363;34;20133;-51
2021/04/15 07:46:34;;;;;;;11.30;3.60;;;;;;;;;;4194691;34;20098;-49
2021/04/15 07:49:34;;;;;;;11.95;3.50;;;;;;;;;;4206421;34;20246;-56
2021/04/15 07:52:34;;;;;;;10.75;4.00;;;;;;;;;;4217976;34;20185;-55
2021/04/15 07:55:23;;;;;;;7.45;3.10;;;;;;;;;;4229456;33;20194;-56
2021/04/15 07:58:12;;;;;;;8.90;2.58;;;;;;;;;;4206348;34;20208;-51
2021/04/15 08:00:55;;;;;;;11.23;3.00;;;;;;;;;;4217456;34;20520;-57
2021/04/15 08:04:00;;;;;;;7.68;3.47;;;;;;;;;;4207437;34;20473;-57
2021/04/15 08:06:47;;;;;;;6.82;3.22;;;;;;;;;;4219136;34;20109;-54
2021/04/15 08:10:11;;;;;;;7.30;3.50;;;;;;;;;;4228091;33;20105;-56
2021/04/15 08:13:06;;;;;;;6.87;3.12;;;;;;;;;;4159963;34;20102;-53
2021/04/15 08:15:51;;;;;;;7.00;2.73;;;;;;;;;;4202334;34;20113;-49
2021/04/15 08:18:42;;;;;;;13.95;3.12;;;;;;;;;;4194678;34;20541;-56
2021/04/15 08:21:27;;;;;;;12.40;2.87;;;;;;;;;;4206143;34;20250;-48
2021/04/15 08:24:21;;;;;;;7.57;3.05;;;;;;;;;;4206494;34;20101;-49
2021/04/15 08:27:26;;;;;;;11.75;3.03;;;;;;;;;;4195263;34;20135;-45
2021/04/15 08:30:31;;;;;;;9.18;3.70;;;;;;;;;;4199966;34;20129;-53
2021/04/15 08:33:23;;;;;;;12.57;3.70;;;;;;;;;;4194783;34;20106;-50
2021/04/15 08:36:02;;;;;;;8.55;3.25;;;;;;;;;;4217556;33;20136;-52
2021/04/15 08:38:39;;;;;;;16.35;3.37;;;;;;;;;;4206330;34;20102;-51
2021/04/15 08:41:21;;;;;;;11.75;3.00;;;;;;;;;;4194687;34;20093;-47
2021/04/15 08:44:32;;;;;;;5.43;2.65;;;;;;;;;;4228437;33;20285;-57
2021/04/15 08:47:16;;;;;;;11.95;3.20;;;;;;;;;;4212748;34;20299;-57
2021/04/15 08:50:02;;;;;;;6.12;2.78;;;;;;;;;;4205756;34;20125;-56
2021/04/15 08:52:44;;;;;;;6.25;2.78;;;;;;;;;;4206231;34;20105;-57
2021/04/15 08:55:46;;;;;;;11.52;3.78;;;;;;;;;;4205826;34;20140;-58
2021/04/15 08:58:49;;;;;;;8.77;3.15;;;;;;;;;;4217377;34;20581;-57
2021/04/15 09:01:46;;;;;;;17.98;4.45;;;;;;;;;;4194593;34;20196;-54
2021/04/15 09:04:15;;;;;;;16.35;3.12;;;;;;;;;;4164548;34;20276;-56
2021/04/15 09:07:02;;;;;;;10.27;3.78;;;;;;;;;;4194125;34;20173;-56
2021/04/15 09:09:35;;;;;;;36.42;4.70;;;;;;;;;;4206019;34;20493;-48
2021/04/15 09:12:42;;;;;;;12.85;3.17;;;;;;;;;;4205625;34;20611;-49
2021/04/15 09:15:32;;;;;;;14.25;3.72;;;;;;;;;;4187698;34;20117;-49
2021/04/15 09:18:11;;;;;;;7.30;2.83;;;;;;;;;;4205864;34;20208;-49
2021/04/15 09:21:00;;;;;;;12.10;2.80;;;;;;;;;;4182886;34;20227;-49
2021/04/15 09:23:51;;;;;;;10.90;3.22;;;;;;;;;;4194547;34;20135;-50
2021/04/15 09:26:21;;;;;;;11.75;3.20;;;;;;;;;;4182595;34;20220;-52
2021/04/15 09:29:13;;;;;;;16.25;3.22;;;;;;;;;;4182500;34;20094;-55
2021/04/15 09:31:55;;;;;;;27.87;3.53;;;;;;;;;;4194281;34;20543;-48
2021/04/15 09:34:51;;;;;;;16.17;3.62;;;;;;;;;;4194579;34;20524;-49
2021/04/15 09:37:54;;;;;;;17.40;3.85;;;;;;;;;;4182549;34;20105;-59
2021/04/15 09:40:34;;;;;;;4.95;2.97;;;;;;;;;;4198415;34;20125;-46
2021/04/15 09:43:46;;;;;;;19.52;3.45;;;;;;;;;;4206003;34;20214;-49
2021/04/15 09:50:50;;;;;;;14.43;4.15;;;;;;;;;;4217707;34;20135;-53
2021/04/15 09:53:41;;;;;;;14.77;3.28;;;;;;;;;;4182461;34;20124;-57
2021/04/15 10:00:25;;;;;;;14.15;4.37;;;;;;;;;;4212874;33;20096;-47
2021/04/15 10:03:16;;;;;;;32.42;5.62;;;;;;;;;;4201886;34;20102;-46
2021/04/15 10:05:49;;;;;;;20.50;4.47;;;;;;;;;;4191453;34;20114;-48
2021/04/15 10:09:10;;;;;;;8.93;3.97;;;;;;;;;;4202809;34;20506;-51
2021/04/15 10:13:23;;;;;;;18.20;4.03;;;;;;;;;;4211307;28;20213;-49
2021/04/15 10:16:34;;;;;;;11.20;3.33;;;;;;;;;;4180456;34;20094;-59
2021/04/15 10:19:32;;;;;;;18.12;4.15;;;;;;;;;;4201769;34;20097;-49
2021/04/15 10:22:36;;;;;;;12.70;4.37;;;;;;;;;;4181415;34;20133;-46
2021/04/15 10:25:16;;;;;;;16.98;4.12;;;;;;;;;;4194943;34;20226;-52
2021/04/15 10:28:38;;;;;;;14.87;3.15;;;;;;;;;;4202658;34;20121;-51
2021/04/15 10:31:55;;;;;;;7.45;3.70;;;;;;;;;;4202389;34;20438;-50
2021/04/15 10:34:27;;;;;;;;;;;;;;;;;;4181421;34;20131;-52
2021/04/15 10:37:28;;;;;;;22.92;4.75;;;;;;;;;;4192199;34;20068;-54
2021/04/15 10:40:33;;;;;;;5.93;3.85;;;;;;;;;;4180557;34;20126;-56
2021/04/15 10:43:22;;;;;;;19.00;4.25;;;;;;;;;;4192203;34;20559;-51
2021/04/15 10:46:17;;;;;;;12.00;3.47;;;;;;;;;;4201645;34;20117;-55
2021/04/15 10:49:44;;;;;;;14.43;3.62;;;;;;;;;;4181146;34;20114;-55
2021/04/15 10:52:23;;;;;;;32.17;4.40;;;;;;;;;;4203306;34;20429;-55
2021/04/15 10:55:41;;;;;;;16.62;4.20;;;;;;;;;;4188848;34;20102;-55
2021/04/15 10:58:55;;;;;;;15.07;2.90;;;;;;;;;;4166725;34;20112;-54
2021/04/15 11:01:37;;;;;;;6.90;3.10;;;;;;;;;;4209845;29;20157;-55
2021/04/15 11:07:26;;;;;;;21.92;4.07;;;;;;;;;;4178335;34;20098;-50
2021/04/15 11:09:56;;;;;;;29.23;5.37;;;;;;;;;;4192277;34;20882;-46
2021/04/15 11:12:25;;;;;;;22.80;5.28;;;;;;;;;;4191884;34;20183;-47
2021/04/15 11:15:24;;;;;;;19.48;4.10;;;;;;;;;;4191952;34;20101;-57
2021/04/15 11:18:31;;;;;;;22.87;5.82;;;;;;;;;;4174308;34;20094;-50
2021/04/15 11:21:50;;;;;;;24.55;5.00;;;;;;;;;;4181325;34;20480;-55
2021/04/15 11:24:43;;;;;;;6.60;2.87;;;;;;;;;;4140536;34;20115;-53
2021/04/15 11:27:33;;;;;;;5.10;2.42;;;;;;;;;;4203153;34;20261;-58
2021/04/15 11:30:01;;;;;;;23.70;4.32;;;;;;;;;;4191362;34;20090;-46
2021/04/15 11:32:41;;;;;;;15.93;4.72;;;;;;;;;;4202525;34;20106;-54
2021/04/15 11:35:13;;;;;;;21.25;3.58;;;;;;;;;;4180570;34;20122;-49
2021/04/15 11:38:07;;;;;;;17.42;3.42;;;;;;;;;;4190704;34;20200;-53
2021/04/15 11:40:51;;;;;;;51.30;6.75;;;;;;;;;;4180413;34;20612;-54
2021/04/15 11:43:26;;;;;;;19.65;4.57;;;;;;;;;;4190600;34;20645;-56
2021/04/15 11:50:28;;;;;;;16.17;5.32;;;;;;;;;;4199960;34;20189;-59
2021/04/15 11:53:47;;;;;;;14.48;3.72;;;;;;;;;;4198619;34;20149;-55
2021/04/15 11:56:18;;;;;;;9.43;2.97;;;;;;;;;;4193794;34;20117;-61
2021/04/15 12:03:12;;;;;;;30.60;5.68;;;;;;;;;;4186144;34;20162;-48
2021/04/15 12:06:33;;;;;;;37.08;6.45;;;;;;;;;;4192989;34;20110;-53
2021/04/15 12:09:03;;;;;;;24.42;3.95;;;;;;;;;;4189300;34;20178;-47
2021/04/15 12:12:20;;;;;;;19.75;4.60;;;;;;;;;;4186632;34;20573;-59
2021/04/15 12:14:48;;;;;;;16.65;3.90;;;;;;;;;;4202561;34;20129;-59
2021/04/15 12:17:19;;;;;;;4.18;2.78;;;;;;;;;;4202651;34;20525;-59
2021/04/15 12:19:51;;;;;;;21.40;2.83;;;;;;;;;;4202679;34;20133;-57
2021/04/15 12:22:41;;;;;;;12.40;3.55;;;;;;;;;;4202978;34;20125;-60
2021/04/15 12:25:18;;;;;;;14.02;3.12;;;;;;;;;;4202192;34;20124;-59
2021/04/15 12:27:48;;;;;;;17.50;3.47;;;;;;;;;;4202931;34;20151;-61
2021/04/15 12:30:18;;;;;;;12.95;3.92;;;;;;;;;;4191440;34;20221;-59
2021/04/15 12:33:00;;;;;;;17.87;3.90;;;;;;;;;;4191124;34;20117;-60
2021/04/15 12:36:00;;;;;;;10.52;3.78;;;;;;;;;;4202837;34;20133;-57
2021/04/15 12:38:37;;;;;;;16.98;3.85;;;;;;;;;;4203014;34;20130;-49
2021/04/15 12:41:05;;;;;;;14.18;3.22;;;;;;;;;;4202829;34;20187;-48
2021/04/15 12:43:37;;;;;;;21.55;4.05;;;;;;;;;;4190945;34;20095;-53
2021/04/15 12:46:10;;;;;;;13.27;3.72;;;;;;;;;;4191139;34;20457;-48
2021/04/15 12:48:59;;;;;;;19.90;4.20;;;;;;;;;;4191565;34;20230;-50
2021/04/15 12:51:30;;;;;;;20.80;4.15;;;;;;;;;;4201641;34;20128;-53
2021/04/15 12:53:59;;;;;;;20.20;4.97;;;;;;;;;;4202425;34;20199;-52
2021/04/15 12:56:36;;;;;;;17.05;4.93;;;;;;;;;;4202357;34;20201;-52
2021/04/15 12:59:02;;;;;;;29.25;5.70;;;;;;;;;;4202594;34;20125;-53
2021/04/15 13:01:38;;;;;;;14.85;4.22;;;;;;;;;;4202339;34;20125;-51
2021/04/15 13:04:21;;;;;;;42.00;5.90;;;;;;;;;;4191524;34;20133;-52
2021/04/15 13:07:12;;;;;;;18.85;5.72;;;;;;;;;;4202466;34;20132;-49
2021/04/15 13:09:44;;;;;;;23.55;5.75;;;;;;;;;;4202530;34;20106;-50
2021/04/15 13:12:21;;;;;;;14.87;5.80;;;;;;;;;;4201466;34;20453;-50
2021/04/15 13:14:56;;;;;;;20.65;4.35;;;;;;;;;;4201355;34;20141;-51
2021/04/15 13:17:36;;;;;;;15.85;5.55;;;;;;;;;;4202470;34;20177;-49
2021/04/15 13:20:43;;;;;;;12.88;3.80;;;;;;;;;;4200897;34;20136;-56
2021/04/15 13:23:13;;;;;;;13.43;5.57;;;;;;;;;;4202148;34;20196;-58
2021/04/15 13:25:54;;;;;;;18.77;5.28;;;;;;;;;;4214059;28;20142;-56
2021/04/15 13:28:43;;;;;;;20.77;4.60;;;;;;;;;;4187928;34;20087;-57
2021/04/15 13:31:32;;;;;;;12.07;5.43;;;;;;;;;;4194858;34;20118;-58
2021/04/15 13:34:08;;;;;;;15.93;4.10;;;;;;;;;;4201056;34;20108;-54
2021/04/15 13:36:45;;;;;;;14.10;4.82;;;;;;;;;;4200868;34;20199;-52
2021/04/15 13:39:28;;;;;;;20.80;4.68;;;;;;;;;;4201737;34;20237;-53
2021/04/15 13:42:51;;;;;;;14.77;4.45;;;;;;;;;;4202145;34;20106;-51
2021/04/15 13:46:23;;;;;;;8.57;5.18;;;;;;;;;;4199951;34;20221;-57
2021/04/15 13:49:21;;;;;;;12.07;4.72;;;;;;;;;;4202019;34;20528;-51
2021/04/15 13:51:48;;;;;;;13.95;4.85;;;;;;;;;;4218189;34;20132;-54
2021/04/15 13:54:19;;;;;;;12.98;5.12;;;;;;;;;;4226485;33;20164;-57
2021/04/15 13:57:08;;;;;;;11.40;5.12;;;;;;;;;;4234275;33;20144;-56
2021/04/15 14:06:11;;;;;;;15.85;5.60;;;;;;;;;;4214397;33;20349;-47
2021/04/15 14:09:13;;;;;;;15.93;6.82;;;;;;;;;;4221043;33;20133;-49
2021/04/15 14:11:54;;;;;;;24.20;7.65;;;;;;;;;;4225006;28;20187;-55
2021/04/15 14:14:29;;;;;;;22.87;9.50;;;;;;;;;;4204834;34;20094;-58
2021/04/15 14:17:08;;;;;;;16.13;6.63;;;;;;;;;;4192775;34;20120;-45
2021/04/15 14:19:40;;;;;;;17.23;7.25;;;;;;;;;;4206524;34;20105;-52
2021/04/15 14:22:22;;;;;;;27.98;7.35;;;;;;;;;;4206284;34;20214;-53
2021/04/15 14:25:03;;;;;;;18.60;6.82;;;;;;;;;;4194548;34;20125;-53
2021/04/15 14:27:30;;;;;;;20.95;7.57;;;;;;;;;;4182936;34;20430;-57
2021/04/15 14:29:56;;;;;;;20.50;7.10;;;;;;;;;;4205077;34;20108;-58
2021/04/15 14:32:27;;;;;;;29.00;9.82;;;;;;;;;;4203780;34;20564;-59
2021/04/15 14:35:21;;;;;;;16.92;8.25;;;;;;;;;;4193366;34;20179;-49
2021/04/15 14:41:58;;;;;;;32.25;10.57;;;;;;;;;;4267878;28;20108;-56
2021/04/15 14:44:35;;;;;;;37.88;10.45;;;;;;;;;;4214242;34;20086;-56
2021/04/15 14:47:08;;;;;;;31.58;10.10;;;;;;;;;;4219645;33;20129;-57
2021/04/15 14:49:34;;;;;;;29.52;9.52;;;;;;;;;;4206084;34;20138;-57
2021/04/15 14:52:22;;;;;;;26.12;8.48;;;;;;;;;;4206375;34;20527;-60
2021/04/15 14:55:00;;;;;;;27.23;8.35;;;;;;;;;;4207266;34;20216;-52
2021/04/15 14:57:34;;;;;;;23.90;7.25;;;;;;;;;;4206904;34;20208;-61
2021/04/15 15:00:39;;;;;;;33.90;9.77;;;;;;;;;;4208217;34;20514;-57
2021/04/15 15:07:37;;;;;;;23.83;7.90;;;;;;;;;;4332888;28;20581;-55
2021/04/15 15:10:16;;;;;;;22.10;8.85;;;;;;;;;;4204500;34;20584;-56
2021/04/15 15:12:55;;;;;;;44.65;8.32;;;;;;;;;;4205467;34;20113;-50
2021/04/15 15:18:32;;;;;;;25.25;8.13;;;;;;;;;;4321683;28;20415;-55
2021/04/15 15:25:40;;;;;;;31.87;11.32;;;;;;;;;;4217111;34;20113;-58
2021/04/15 15:28:29;;;;;;;37.05;11.40;;;;;;;;;;4218784;34;20110;-58
2021/04/15 15:31:13;;;;;;;36.75;13.40;;;;;;;;;;4206289;34;20509;-50
2021/04/15 15:33:49;;;;;;;61.03;15.82;;;;;;;;;;4206490;34;20117;-51
2021/04/15 15:36:25;;;;;;;46.33;14.13;;;;;;;;;;4206810;34;20111;-52
2021/04/15 15:38:53;;;;;;;64.60;14.23;;;;;;;;;;4219719;34;20208;-54
2021/04/15 15:41:27;;;;;;;54.03;16.02;;;;;;;;;;4219368;34;20209;-50
2021/04/15 15:44:06;;;;;;;57.40;16.42;;;;;;;;;;4219662;34;20118;-48
2021/04/15 15:46:49;;;;;;;47.80;15.73;;;;;;;;;;4219377;34;20533;-49
2021/04/15 15:49:22;;;;;;;52.72;17.25;;;;;;;;;;4218756;34;21947;-48
2021/04/15 15:51:55;;;;;;;59.15;18.00;;;;;;;;;;4218763;34;20477;-56
2021/04/15 15:54:37;;;;;;;61.15;18.90;;;;;;;;;;4219317;34;20127;-55
2021/04/15 15:57:23;;;;;;;61.47;18.98;;;;;;;;;;4218980;34;20444;-51
2021/04/15 15:59:56;;;;;;;52.28;19.10;;;;;;;;;;4208045;34;20212;-49
2021/04/15 16:02:47;;;;;;;71.87;20.58;;;;;;;;;;4218421;34;20103;-51
2021/04/15 16:05:19;;;;;;;66.62;21.87;;;;;;;;;;4214392;33;20102;-50
2021/04/15 16:08:00;;;;;;;62.47;23.77;;;;;;;;;;4218922;34;20136;-47
2021/04/15 16:10:32;;;;;;;63.55;23.62;;;;;;;;;;4206588;34;20128;-53
2021/04/15 16:13:03;;;;;;;70.22;23.62;;;;;;;;;;4219268;34;20110;-55
2021/04/15 16:15:47;;;;;;;77.93;26.52;;;;;;;;;;4207031;34;20426;-49
2021/04/15 16:18:22;;;;;;;70.18;24.30;;;;;;;;;;4218386;33;20493;-47
2021/04/15 16:21:19;;;;;;;67.37;24.02;;;;;;;;;;4219286;34;20524;-50
2021/04/15 16:24:28;;;;;;;70.40;24.70;;;;;;;;;;4193835;34;20513;-51
2021/04/15 16:27:03;;;;;;;65.40;22.02;;;;;;;;;;4200375;34;20121;-50
2021/04/15 16:29:33;;;;;;;65.35;22.40;;;;;;;;;;4219456;34;20281;-53
2021/04/15 16:32:03;;;;;;;65.37;20.12;;;;;;;;;;4219295;33;20454;-48
2021/04/15 16:34:38;;;;;;;55.78;17.35;;;;;;;;;;4206624;34;20163;-50
2021/04/15 16:37:11;;;;;;;;;;;;;;;;;;4206898;34;20098;-50
2021/04/15 16:39:41;;;;;;;60.17;16.87;;;;;;;;;;4219335;34;20356;-49
2021/04/15 16:42:18;;;;;;;44.72;12.73;;;;;;;;;;4206095;34;20101;-52
2021/04/15 16:44:54;;;;;;;48.15;15.35;;;;;;;;;;4206920;34;20454;-53
2021/04/15 16:47:34;;;;;;;45.30;17.87;;;;;;;;;;4196029;34;20196;-56
2021/04/15 16:50:11;;;;;;;65.20;20.88;;;;;;;;;;4218709;34;20488;-57
2021/04/15 16:52:47;;;;;;;59.90;18.00;;;;;;;;;;4205808;34;20097;-57
2021/04/15 16:55:26;;;;;;;51.67;16.52;;;;;;;;;;4206988;34;20509;-57
2021/04/15 16:57:55;;;;;;;50.45;16.37;;;;;;;;;;4206246;34;20198;-48
2021/04/15 17:00:26;;;;;;;43.75;15.80;;;;;;;;;;4205888;34;20124;-53
2021/04/15 17:02:53;;;;;;;44.58;15.30;;;;;;;;;;4218938;34;20227;-54
2021/04/15 17:05:30;;;;;;;50.45;17.73;;;;;;;;;;4206287;34;20132;-53
2021/04/15 17:08:14;;;;;;;47.17;18.17;;;;;;;;;;4207283;34;20538;-55
2021/04/15 17:10:51;;;;;;;58.28;19.77;;;;;;;;;;4218508;34;20100;-55
2021/04/15 17:13:19;;;;;;;46.13;18.87;;;;;;;;;;4219024;34;20094;-54